KDCA/DCA METAR and TAF weather

Enter ICAO airport designator
Station Type Date Time Source
KDCA METAR 2021/07/30 22:52 UTC NOAA

KDCA 302252Z 32012KT 10SM FEW080 SCT250 31/12 A2989 RMK AO2 SLP123 T03060117


Station Type Date Time Source
KDCA Decoded METAR 2021/07/30 22:52 UTC NOAA

WASHINGTON NATIONAL AIRPORT , VA, United States (KDCA) 38-51N 077-02W 18M
Jul 30, 2021 - 06:52 PM EDT / 2021.07.30 2252 UTC
Wind: from the NW (320 degrees) at 14 MPH (12 KT):0
Visibility: 10 mile(s):0
Sky conditions: partly cloudy
Temperature: 87.1 F (30.6 C)
Dew Point: 53.1 F (11.7 C)
Relative Humidity: 31%
Pressure (altimeter): 29.89 in. Hg (1012 hPa)
ob: KDCA 302252Z 32012KT 10SM FEW080 SCT250 31/12 A2989 RMK AO2 SLP123 T03060117
cycle: 23

Station Type Date Time Source
KDCA TAF 2021/07/30 21:46 UTC NOAA

TAF
AMD KDCA 302044Z 3021/3124 34008G16KT P6SM FEW050
FM302200 32009KT P6SM SKC
FM310200 35005KT P6SM SKC
FM312100 25005KT P6SM BKN250

Example: see airport list